createdAt,value
2022-08-17T00:02:25.960Z,10.52
2022-08-17T00:04:54.962Z,11.15
2022-08-17T00:07:22.333Z,11.77
2022-08-17T00:09:49.039Z,11.38
2022-08-17T00:12:42.663Z,12.07
2022-08-17T00:15:02.992Z,13.15
2022-08-17T00:17:29.743Z,11.48
2022-08-17T00:19:56.401Z,12.95
2022-08-17T00:22:35.208Z,11.95
2022-08-17T00:25:12.129Z,11.32
2022-08-17T00:27:39.445Z,12.15
2022-08-17T00:30:09.786Z,11.20
2022-08-17T00:33:22.741Z,12.05
2022-08-17T00:35:33.961Z,11.88
2022-08-17T00:38:00.688Z,12.07
2022-08-17T00:40:27.610Z,12.65
2022-08-17T00:43:23.609Z,11.70
2022-08-17T00:45:50.824Z,10.88
2022-08-17T00:48:29.340Z,11.55
2022-08-17T00:51:32.594Z,11.60
2022-08-17T00:54:24.016Z,11.48
2022-08-17T00:57:04.603Z,11.10
2022-08-17T00:59:37.669Z,10.88
2022-08-17T01:02:06.477Z,10.55
2022-08-17T01:04:33.627Z,11.65
2022-08-17T01:07:02.166Z,10.48
2022-08-17T01:09:29.089Z,11.00
2022-08-17T01:11:55.967Z,11.15
2022-08-17T01:14:24.924Z,11.02
2022-08-17T01:16:54.266Z,11.35
2022-08-17T01:19:28.853Z,11.75
2022-08-17T01:22:10.806Z,11.25
2022-08-17T01:24:40.754Z,11.57
2022-08-17T01:27:10.264Z,11.48
2022-08-17T01:29:39.688Z,11.05
2022-08-17T01:32:08.369Z,10.75
2022-08-17T01:34:42.726Z,11.00
2022-08-17T01:37:12.731Z,11.02
2022-08-17T01:39:45.511Z,10.55
2022-08-17T01:42:28.410Z,12.23
2022-08-17T01:45:04.479Z,10.80
2022-08-17T01:47:31.413Z,10.93
2022-08-17T01:49:58.126Z,11.82
2022-08-17T01:52:24.940Z,11.90
2022-08-17T01:54:52.880Z,11.90
2022-08-17T01:57:22.383Z,12.27
2022-08-17T01:59:49.169Z,12.48
2022-08-17T02:02:31.231Z,11.60
2022-08-17T02:04:58.465Z,11.82
2022-08-17T02:07:26.929Z,11.30
2022-08-17T02:09:53.958Z,13.15
2022-08-17T02:12:39.299Z,11.40
2022-08-17T02:15:08.864Z,14.07
2022-08-17T02:17:35.992Z,12.93
2022-08-17T02:20:04.794Z,14.25
2022-08-17T02:22:31.546Z,12.50
2022-08-17T02:25:02.185Z,13.35
2022-08-17T02:27:29.979Z,12.73
2022-08-17T02:29:57.088Z,12.63
2022-08-17T02:32:28.185Z,14.27
2022-08-17T02:34:56.998Z,14.15
2022-08-17T02:37:24.533Z,15.05
2022-08-17T02:39:51.309Z,19.92
2022-08-17T02:42:18.527Z,15.13
2022-08-17T02:44:45.273Z,16.20
2022-08-17T02:47:12.829Z,15.00
2022-08-17T02:49:39.513Z,16.27
2022-08-17T02:52:07.526Z,15.18
2022-08-17T02:54:39.196Z,17.88
2022-08-17T02:57:08.874Z,15.40
2022-08-17T02:59:35.629Z,17.05
2022-08-17T03:02:08.478Z,14.40
2022-08-17T03:04:38.606Z,15.00
2022-08-17T03:07:05.823Z,14.63
2022-08-17T03:09:33.077Z,13.63
2022-08-17T03:12:12.911Z,12.75
2022-08-17T03:14:43.860Z,12.63
2022-08-17T03:17:12.813Z,13.27
2022-08-17T03:19:47.812Z,13.38
2022-08-17T03:22:37.357Z,12.27
2022-08-17T03:25:01.271Z,12.98
2022-08-17T03:27:28.901Z,12.50
2022-08-17T03:29:55.570Z,14.85
2022-08-17T03:32:22.347Z,12.27
2022-08-17T03:34:49.014Z,11.60
2022-08-17T03:37:15.908Z,12.40
2022-08-17T03:39:43.067Z,10.82
2022-08-17T03:42:32.583Z,11.55
2022-08-17T03:45:04.824Z,12.20
2022-08-17T03:47:50.369Z,12.45
2022-08-17T03:50:36.908Z,18.45
2022-08-17T03:53:29.274Z,12.38
2022-08-17T03:56:21.641Z,12.45
2022-08-17T03:58:48.422Z,12.75
2022-08-17T04:01:15.494Z,12.68
2022-08-17T04:03:42.166Z,12.20
2022-08-17T04:06:09.060Z,11.15
2022-08-17T04:08:35.814Z,13.38
2022-08-17T04:11:05.676Z,13.10
2022-08-17T04:13:32.443Z,11.30
2022-08-17T04:15:59.986Z,11.88
2022-08-17T04:18:26.758Z,11.50
2022-08-17T04:20:53.721Z,11.13
2022-08-17T04:23:21.246Z,9.82
2022-08-17T04:25:50.280Z,10.70
2022-08-17T04:28:18.988Z,9.38
2022-08-17T04:30:47.480Z,9.90
2022-08-17T04:33:17.711Z,9.27
2022-08-17T04:35:58.259Z,10.00
2022-08-17T04:38:30.085Z,9.57
2022-08-17T04:41:17.594Z,9.23
2022-08-17T04:43:48.354Z,9.75
2022-08-17T04:46:19.953Z,9.77
2022-08-17T04:48:50.556Z,9.45
2022-08-17T04:51:22.794Z,9.60
2022-08-17T04:53:55.216Z,9.38
2022-08-17T04:56:24.961Z,10.77
2022-08-17T04:58:54.417Z,9.95
2022-08-17T05:01:23.850Z,11.23
2022-08-17T05:03:59.194Z,9.48
2022-08-17T05:06:29.960Z,9.95
2022-08-17T05:08:58.611Z,8.75
2022-08-17T05:11:28.041Z,9.07
2022-08-17T05:13:56.611Z,8.82
2022-08-17T05:16:24.987Z,8.93
2022-08-17T05:18:52.709Z,8.07
2022-08-17T05:21:21.104Z,8.90
2022-08-17T05:23:50.332Z,8.10
2022-08-17T05:26:26.892Z,7.90
2022-08-17T05:28:58.418Z,7.18
2022-08-17T05:31:29.519Z,7.47
2022-08-17T05:33:56.327Z,6.85
2022-08-17T05:36:42.780Z,7.65
2022-08-17T05:39:15.920Z,7.10
2022-08-17T05:41:47.955Z,7.80
2022-08-17T05:44:16.545Z,7.05
2022-08-17T05:46:49.345Z,7.30
2022-08-17T05:49:23.378Z,6.28
2022-08-17T05:51:53.087Z,6.73
2022-08-17T05:54:57.025Z,6.65
2022-08-17T05:57:44.793Z,6.65
2022-08-17T06:00:26.253Z,6.32
2022-08-17T06:03:16.174Z,6.22
2022-08-17T06:05:42.882Z,6.18
2022-08-17T06:08:19.356Z,6.00
2022-08-17T06:11:01.274Z,6.22
2022-08-17T06:13:40.936Z,5.88
2022-08-17T06:16:33.213Z,6.07
2022-08-17T06:19:06.393Z,6.10
2022-08-17T06:21:42.685Z,6.03
2022-08-17T06:24:26.357Z,6.03
2022-08-17T06:26:58.244Z,6.38
2022-08-17T06:29:43.983Z,5.43
2022-08-17T06:32:12.979Z,6.30
2022-08-17T06:34:41.857Z,6.53
2022-08-17T06:37:21.829Z,5.78
2022-08-17T06:39:57.671Z,6.55
2022-08-17T06:43:05.616Z,6.50
2022-08-17T06:45:49.387Z,6.03
2022-08-17T06:48:24.511Z,5.65
2022-08-17T06:51:00.565Z,5.60
2022-08-17T06:53:41.471Z,6.60
2022-08-17T06:56:11.702Z,5.50
2022-08-17T06:58:42.001Z,6.10
2022-08-17T07:01:23.337Z,5.97
2022-08-17T07:04:14.362Z,6.88
2022-08-17T07:06:49.299Z,6.05
2022-08-17T07:09:23.459Z,5.72
2022-08-17T07:11:59.759Z,6.20
2022-08-17T07:14:48.920Z,6.90
2022-08-17T07:17:18.448Z,6.82
2022-08-17T07:19:51.786Z,6.40
2022-08-17T07:22:30.799Z,5.85
2022-08-17T07:27:51.439Z,5.15
2022-08-17T07:30:44.682Z,7.18
2022-08-17T07:33:23.931Z,7.18
2022-08-17T07:35:51.051Z,6.38
2022-08-17T07:38:32.189Z,6.90
2022-08-17T07:41:03.862Z,7.43
2022-08-17T07:43:52.895Z,7.90
2022-08-17T07:47:06.115Z,7.75
2022-08-17T07:49:34.534Z,7.50
2022-08-17T07:52:48.422Z,7.22
2022-08-17T07:54:52.558Z,6.93
2022-08-17T07:57:30.476Z,7.47
2022-08-17T08:00:01.269Z,5.80
2022-08-17T08:02:38.738Z,6.78
2022-08-17T08:05:30.748Z,5.35
2022-08-17T08:08:26.579Z,5.10
2022-08-17T08:11:11.323Z,4.82
2022-08-17T08:13:44.198Z,4.78
2022-08-17T08:16:34.364Z,5.22
2022-08-17T08:19:02.185Z,4.82
2022-08-17T08:21:54.937Z,4.88
2022-08-17T08:24:46.533Z,4.63
2022-08-17T08:27:49.649Z,4.55
2022-08-17T08:30:21.369Z,4.47
2022-08-17T08:33:15.329Z,4.38
2022-08-17T08:35:55.773Z,4.57
2022-08-17T08:38:39.205Z,5.07
2022-08-17T08:41:37.172Z,4.88
2022-08-17T08:44:13.438Z,5.35
2022-08-17T08:46:46.595Z,4.90
2022-08-17T08:50:01.163Z,5.05
2022-08-17T08:53:02.416Z,5.32
2022-08-17T08:55:56.012Z,4.57
2022-08-17T08:58:56.177Z,5.40
2022-08-17T09:01:25.537Z,5.28
2022-08-17T09:04:24.288Z,5.53
2022-08-17T09:07:09.326Z,6.07
2022-08-17T09:09:35.949Z,5.47
2022-08-17T09:12:20.045Z,4.70
2022-08-17T09:15:12.298Z,5.72
2022-08-17T09:18:59.018Z,4.68
2022-08-17T09:21:01.691Z,5.95
2022-08-17T09:23:34.308Z,5.50
2022-08-17T09:26:16.292Z,5.63
2022-08-17T09:28:55.944Z,4.85
2022-08-17T09:31:48.929Z,5.32
2022-08-17T09:34:31.885Z,5.68
2022-08-17T09:37:15.154Z,5.25
2022-08-17T09:40:09.668Z,6.13
2022-08-17T09:42:46.945Z,6.33
2022-08-17T09:45:40.501Z,5.47
2022-08-17T09:48:19.668Z,5.45
2022-08-17T09:51:04.614Z,5.82
2022-08-17T09:53:34.004Z,5.80
2022-08-17T09:56:09.092Z,5.72
2022-08-17T09:58:44.767Z,5.47
2022-08-17T10:01:36.821Z,5.63
2022-08-17T10:04:14.253Z,4.90
2022-08-17T10:07:07.183Z,6.55
2022-08-17T10:09:55.748Z,6.40
2022-08-17T10:12:47.183Z,6.25
2022-08-17T10:15:14.107Z,6.07
2022-08-17T10:18:12.356Z,6.78
2022-08-17T10:20:52.387Z,6.72
2022-08-17T10:23:53.503Z,6.50
2022-08-17T10:26:25.396Z,5.93
2022-08-17T10:28:59.434Z,6.18
2022-08-17T10:31:35.049Z,6.07
2022-08-17T10:34:21.075Z,6.07
2022-08-17T10:37:09.365Z,5.72
2022-08-17T10:40:07.336Z,6.13
2022-08-17T10:42:46.970Z,4.68
2022-08-17T10:45:26.215Z,5.15
2022-08-17T10:48:06.832Z,5.05
2022-08-17T10:51:12.224Z,5.13
2022-08-17T10:53:42.543Z,5.17
2022-08-17T10:56:12.386Z,4.85
2022-08-17T10:59:01.093Z,4.85
2022-08-17T11:01:38.007Z,4.97
2022-08-17T11:04:49.015Z,4.85
2022-08-17T11:07:54.341Z,4.88
2022-08-17T11:10:43.266Z,6.30
2022-08-17T11:13:30.332Z,4.68
2022-08-17T11:16:03.562Z,5.00
2022-08-17T11:19:08.664Z,5.07
2022-08-17T11:22:11.939Z,4.80
2022-08-17T11:24:48.349Z,4.97
2022-08-17T11:27:29.889Z,5.20
2022-08-17T11:30:09.134Z,5.47
2022-08-17T11:32:52.223Z,5.30
2022-08-17T11:35:21.542Z,5.20
2022-08-17T11:38:03.224Z,5.18
2022-08-17T11:40:41.069Z,5.68
2022-08-17T11:43:45.844Z,5.53
2022-08-17T11:46:56.136Z,4.72
2022-08-17T11:50:09.966Z,5.40
2022-08-17T11:52:46.072Z,5.00
2022-08-17T11:55:36.342Z,5.10
2022-08-17T11:58:26.558Z,5.28
2022-08-17T12:00:57.785Z,5.03
2022-08-17T12:03:33.527Z,5.32
2022-08-17T12:06:21.491Z,4.72
2022-08-17T12:08:59.803Z,5.07
2022-08-17T12:11:55.430Z,5.18
2022-08-17T12:14:51.385Z,5.10
2022-08-17T12:17:29.588Z,5.45
2022-08-17T12:20:23.162Z,5.45
2022-08-17T12:23:01.431Z,5.32
2022-08-17T12:25:35.769Z,5.30
2022-08-17T12:28:05.962Z,6.13
2022-08-17T12:30:37.943Z,5.40
2022-08-17T12:33:25.477Z,6.05
2022-08-17T12:36:06.619Z,5.15
2022-08-17T12:38:36.907Z,4.88
2022-08-17T12:41:25.272Z,5.68
2022-08-17T12:44:05.782Z,4.70
2022-08-17T12:46:48.412Z,5.38
2022-08-17T12:49:39.849Z,5.82
2022-08-17T12:52:38.555Z,5.72
2022-08-17T12:55:25.317Z,5.97
2022-08-17T12:57:58.547Z,5.57
2022-08-17T13:00:41.479Z,5.30
2022-08-17T13:03:22.148Z,5.18
2022-08-17T13:06:03.090Z,5.05
2022-08-17T13:08:43.794Z,4.93
2022-08-17T13:11:19.147Z,5.30
2022-08-17T13:13:56.401Z,5.28
2022-08-17T13:16:26.589Z,5.78
2022-08-17T13:19:09.156Z,5.13
2022-08-17T13:21:38.026Z,5.20
2022-08-17T13:24:10.594Z,5.40
2022-08-17T13:26:41.987Z,5.15
2022-08-17T13:29:24.029Z,5.13
2022-08-17T13:32:13.000Z,5.32
2022-08-17T13:35:07.802Z,5.53
2022-08-17T13:37:36.628Z,5.88
2022-08-17T13:40:09.420Z,5.35
2022-08-17T13:42:50.425Z,5.72
2022-08-17T13:45:36.140Z,5.15
2022-08-17T13:48:11.820Z,5.53
2022-08-17T13:50:59.900Z,5.55
2022-08-17T13:53:32.986Z,6.07
2022-08-17T13:56:33.279Z,6.00
2022-08-17T13:59:09.066Z,5.78
2022-08-17T14:01:37.761Z,5.40
2022-08-17T14:04:08.789Z,5.80
2022-08-17T14:07:12.078Z,5.32
2022-08-17T14:09:56.599Z,4.75
2022-08-17T14:12:26.041Z,5.28
2022-08-17T14:14:55.056Z,5.28
2022-08-17T14:17:23.025Z,4.65
2022-08-17T14:19:51.231Z,4.90
2022-08-17T14:22:28.596Z,5.20
2022-08-17T14:24:58.173Z,5.20
2022-08-17T14:27:29.060Z,5.80
2022-08-17T14:29:58.013Z,5.00
2022-08-17T14:32:31.153Z,5.32
2022-08-17T14:34:59.664Z,5.28
2022-08-17T14:37:28.927Z,5.75
2022-08-17T14:39:57.833Z,6.57
2022-08-17T14:42:28.847Z,6.05
2022-08-17T14:44:56.559Z,5.43
2022-08-17T14:47:23.630Z,7.35
2022-08-17T14:49:50.483Z,6.47
2022-08-17T14:52:23.059Z,6.82
2022-08-17T14:54:54.676Z,5.95
2022-08-17T14:57:33.546Z,6.30
2022-08-17T15:00:01.669Z,6.13
2022-08-17T15:02:30.702Z,9.18
2022-08-17T15:05:02.961Z,9.02
2022-08-17T15:07:30.397Z,8.63
2022-08-17T15:09:58.683Z,8.90
2022-08-17T15:12:32.770Z,9.20
2022-08-17T15:15:04.726Z,8.55
2022-08-17T15:17:45.234Z,6.68
2022-08-17T15:20:22.176Z,7.20
2022-08-17T15:22:59.209Z,6.80
2022-08-17T15:25:27.913Z,7.40
2022-08-17T15:27:56.166Z,7.65
2022-08-17T15:30:23.781Z,7.38
2022-08-17T15:32:54.388Z,7.88
2022-08-17T15:35:27.244Z,7.20
2022-08-17T15:38:11.062Z,7.57
2022-08-17T15:40:47.251Z,8.27
2022-08-17T15:43:27.341Z,8.40
2022-08-17T15:46:12.473Z,7.65
2022-08-17T15:48:47.417Z,7.00
2022-08-17T15:51:25.335Z,7.38
2022-08-17T15:53:55.596Z,7.50
2022-08-17T15:56:23.161Z,7.43
2022-08-17T15:58:51.060Z,7.53
2022-08-17T16:02:15.425Z,6.22
2022-08-17T16:04:26.939Z,8.25
2022-08-17T16:06:58.175Z,7.10
2022-08-17T16:09:24.980Z,7.22
2022-08-17T16:11:55.120Z,7.25
2022-08-17T16:14:22.714Z,7.32
2022-08-17T16:16:51.008Z,8.57
2022-08-17T16:19:17.738Z,6.68
2022-08-17T16:21:44.420Z,12.32
2022-08-17T16:24:13.395Z,13.50
2022-08-17T16:26:42.110Z,11.10
2022-08-17T16:29:09.116Z,10.73
2022-08-17T16:31:37.694Z,8.88
2022-08-17T16:34:17.388Z,8.57
2022-08-17T16:36:55.385Z,10.05
2022-08-17T16:39:27.874Z,10.27
2022-08-17T16:41:56.198Z,9.75
2022-08-17T16:44:23.292Z,8.20
2022-08-17T16:46:50.427Z,8.40
2022-08-17T16:49:35.921Z,8.57
2022-08-17T16:52:07.075Z,8.57
2022-08-17T16:54:35.477Z,9.00
2022-08-17T16:57:05.450Z,9.07
2022-08-17T16:59:40.298Z,9.02
2022-08-17T17:02:11.809Z,9.20
2022-08-17T17:05:07.357Z,9.82
2022-08-17T17:07:38.173Z,9.50
2022-08-17T17:10:11.728Z,10.30
2022-08-17T17:13:01.130Z,9.68
2022-08-17T17:15:30.917Z,8.57
2022-08-17T17:18:06.909Z,9.10
2022-08-17T17:20:43.199Z,10.57
2022-08-17T17:23:34.008Z,10.00
2022-08-17T17:26:22.331Z,11.88
2022-08-17T17:29:08.107Z,9.95
2022-08-17T17:32:09.575Z,10.48
2022-08-17T17:34:39.025Z,10.13
2022-08-17T17:37:12.916Z,10.63
2022-08-17T17:40:06.299Z,10.27
2022-08-17T17:42:34.679Z,9.48
2022-08-17T17:45:23.423Z,9.73
2022-08-17T17:47:50.787Z,8.60
2022-08-17T17:50:20.581Z,8.18
2022-08-17T17:53:02.194Z,8.90
2022-08-17T17:55:39.072Z,9.40
2022-08-17T17:58:27.183Z,9.25
2022-08-17T18:01:07.509Z,9.10
2022-08-17T18:04:11.204Z,9.75
2022-08-17T18:07:22.975Z,9.98
2022-08-17T18:10:19.558Z,9.45
2022-08-17T18:13:31.206Z,9.40
2022-08-17T18:16:03.650Z,9.88
2022-08-17T18:18:38.159Z,10.10
2022-08-17T18:21:15.657Z,10.27
2022-08-17T18:23:58.036Z,9.77
2022-08-17T18:26:33.749Z,10.10
2022-08-17T18:29:03.425Z,8.68
2022-08-17T18:31:30.277Z,10.00
2022-08-17T18:37:37.054Z,9.80
2022-08-17T18:40:22.560Z,9.55
2022-08-17T18:42:55.007Z,9.95
2022-08-17T18:45:35.902Z,10.18
2022-08-17T18:48:03.122Z,10.45
2022-08-17T18:50:41.246Z,10.48
2022-08-17T18:53:33.520Z,10.25
2022-08-17T18:56:18.008Z,11.52
2022-08-17T18:58:53.902Z,11.68
2022-08-17T19:01:47.173Z,12.18
2022-08-17T19:04:34.622Z,10.85
2022-08-17T19:07:23.873Z,10.70
2022-08-17T19:09:58.858Z,11.40
2022-08-17T19:15:17.738Z,11.63
2022-08-17T19:17:52.277Z,12.10
2022-08-17T19:20:53.882Z,11.85
2022-08-17T19:23:54.207Z,11.40
2022-08-17T19:26:54.283Z,10.90
2022-08-17T19:29:41.556Z,10.73
2022-08-17T19:32:10.559Z,11.27
2022-08-17T19:34:39.173Z,11.60
2022-08-17T19:37:10.156Z,10.50
2022-08-17T19:39:49.094Z,11.20
2022-08-17T19:42:47.579Z,11.55
2022-08-17T19:45:35.067Z,11.02
2022-08-17T19:48:20.691Z,9.77
2022-08-17T19:54:03.888Z,11.60
2022-08-17T19:57:04.141Z,10.98
2022-08-17T20:00:18.835Z,10.88
2022-08-17T20:03:22.137Z,11.23
2022-08-17T20:06:12.041Z,10.25
2022-08-17T20:08:59.287Z,10.55
2022-08-17T20:11:38.511Z,10.82
2022-08-17T20:14:13.291Z,11.55
2022-08-17T20:16:40.109Z,11.00
2022-08-17T20:19:16.501Z,11.07
2022-08-17T20:21:56.249Z,11.35
2022-08-17T20:24:28.147Z,12.82
2022-08-17T20:27:11.825Z,29.80
2022-08-17T20:30:03.892Z,18.73
2022-08-17T20:32:36.681Z,14.52
2022-08-17T20:35:23.900Z,11.82
2022-08-17T20:38:13.584Z,11.38
2022-08-17T20:41:03.890Z,12.18
2022-08-17T20:43:33.589Z,12.73
2022-08-17T20:46:03.318Z,9.93
2022-08-17T20:48:38.497Z,10.88
2022-08-17T20:51:28.668Z,11.20
2022-08-17T20:53:55.684Z,11.70
2022-08-17T20:56:44.667Z,15.65
2022-08-17T20:59:20.568Z,21.50
2022-08-17T21:02:03.938Z,15.13
2022-08-17T21:04:54.519Z,13.38
2022-08-17T21:07:42.887Z,15.18
2022-08-17T21:10:36.734Z,18.73
2022-08-17T21:13:15.745Z,19.23
2022-08-17T21:16:01.351Z,19.48
2022-08-17T21:21:46.595Z,18.73
2022-08-17T21:24:17.880Z,12.90
2022-08-17T21:27:00.251Z,24.63
2022-08-17T21:29:32.782Z,18.88
2022-08-17T21:32:03.933Z,17.77
2022-08-17T21:34:33.019Z,19.23
2022-08-17T21:37:25.147Z,23.15
2022-08-17T21:40:18.263Z,19.35
2022-08-17T21:42:53.031Z,19.73
2022-08-17T21:45:22.941Z,23.42
2022-08-17T21:48:06.792Z,18.02
2022-08-17T21:50:34.434Z,25.15
2022-08-17T21:53:03.101Z,18.27
2022-08-17T21:55:32.581Z,13.85
2022-08-17T21:58:14.917Z,12.57
2022-08-17T22:00:44.723Z,10.13
2022-08-17T22:03:24.357Z,10.63
2022-08-17T22:05:51.571Z,10.73
2022-08-17T22:08:25.158Z,10.60
2022-08-17T22:11:03.510Z,10.27
2022-08-17T22:13:30.302Z,10.88
2022-08-17T22:16:28.098Z,11.65
2022-08-17T22:18:58.405Z,12.73
2022-08-17T22:21:25.576Z,11.65
2022-08-17T22:24:15.373Z,10.27
2022-08-17T22:27:00.337Z,10.85
2022-08-17T22:29:58.196Z,10.57
2022-08-17T22:32:40.042Z,10.65
2022-08-17T22:35:32.890Z,11.00
2022-08-17T22:38:25.680Z,11.60
2022-08-17T22:40:57.033Z,10.77
2022-08-17T22:43:28.853Z,15.65
2022-08-17T22:45:59.219Z,15.82
2022-08-17T22:48:28.475Z,15.95
2022-08-17T22:51:13.683Z,16.33
2022-08-17T22:54:13.462Z,16.20
2022-08-17T22:57:26.483Z,16.85
2022-08-17T22:59:55.733Z,16.58
2022-08-17T23:02:32.009Z,15.18
2022-08-17T23:05:12.930Z,14.95
2022-08-17T23:07:40.571Z,14.52
2022-08-17T23:10:10.101Z,19.40
2022-08-17T23:12:39.909Z,12.02
2022-08-17T23:15:14.405Z,15.15
2022-08-17T23:17:42.178Z,18.52
2022-08-17T23:20:14.265Z,13.50
2022-08-17T23:22:51.081Z,13.75
2022-08-17T23:25:30.741Z,15.40
2022-08-17T23:28:01.261Z,21.42
2022-08-17T23:30:30.368Z,21.52
2022-08-17T23:33:02.496Z,23.77
2022-08-17T23:35:39.771Z,20.75
2022-08-17T23:38:11.322Z,20.63
2022-08-17T23:40:39.707Z,19.65
2022-08-17T23:43:17.393Z,17.38
2022-08-17T23:45:54.165Z,18.35
2022-08-17T23:48:36.089Z,18.42
2022-08-17T23:51:25.897Z,15.98
2022-08-17T23:53:58.213Z,13.85
2022-08-17T23:56:27.925Z,12.95
2022-08-17T23:58:55.710Z,12.25
